EDW455 LSZH-LGIR
Flight info
| Callsign | EDW455 |
|---|---|
| Flight time | 2h 52m |
| Altitude | 35000 |
| Route | DEGES Z2 XEBIX L607 ELMEM N606 GIRIS DCT NIVAS DCT PEVAL DCT NERRA DCT PETAK DCT PINDO DCT KEA UL607 GIVIS T514 XAVIS |
| Aircraft | A320/M-SDE3FGHIRWY/LB1 |
Departure
| Time | 2026-04-30 15:09 |
|---|---|
| Airport | Zürich Airport (LSZH) |
Arrival
| Time | 2026-04-30 18:02 |
|---|---|
| Airport | Heraklion International Nikos Kazantzakis Airport (LGIR) |
| Time | Latitude | Longitude | Altitude | Speed | Heading |
|---|---|---|---|---|---|
| 2026-04-30 14:43 | 47.45358 | 8.55649 | 1407 ft | 0 kts | 6° |
| 2026-04-30 15:01 | 47.45351 | 8.55648 | 1397 ft | 4 kts | 6° |
| 2026-04-30 15:01 | 47.45289 | 8.55645 | 1403 ft | 4 kts | 345° |
| 2026-04-30 15:02 | 47.45270 | 8.55661 | 1404 ft | 3 kts | 282° |
| 2026-04-30 15:02 | 47.45269 | 8.55665 | 1404 ft | 0 kts | 276° |
| 2026-04-30 15:05 | 47.45305 | 8.55482 | 1402 ft | 8 kts | 299° |
| 2026-04-30 15:06 | 47.45363 | 8.55331 | 1402 ft | 13 kts | 299° |
| 2026-04-30 15:06 | 47.45425 | 8.55121 | 1404 ft | 12 kts | 290° |
| 2026-04-30 15:07 | 47.45519 | 8.54716 | 1404 ft | 22 kts | 289° |
| 2026-04-30 15:07 | 47.45679 | 8.54010 | 1400 ft | 43 kts | 290° |
| 2026-04-30 15:08 | 47.45888 | 8.53820 | 1398 ft | 2 kts | 96° |
| 2026-04-30 15:08 | 47.45859 | 8.54273 | 1400 ft | 84 kts | 95° |
| 2026-04-30 15:09 | 47.45730 | 8.57131 | 1930 ft | 167 kts | 89° |
| 2026-04-30 15:09 | 47.45491 | 8.60648 | 3240 ft | 183 kts | 93° |
| 2026-04-30 15:10 | 47.45285 | 8.64776 | 3685 ft | 221 kts | 84° |
| 2026-04-30 15:11 | 47.46286 | 8.74748 | 6306 ft | 261 kts | 81° |
| 2026-04-30 15:11 | 47.46716 | 8.80256 | 7670 ft | 274 kts | 86° |
| 2026-04-30 15:12 | 47.45801 | 8.88639 | 9971 ft | 283 kts | 102° |
| 2026-04-30 15:13 | 47.45069 | 8.93556 | 10592 ft | 312 kts | 102° |
| 2026-04-30 15:14 | 47.42981 | 9.08299 | 12867 ft | 349 kts | 100° |
| 2026-04-30 15:14 | 47.41651 | 9.17730 | 14648 ft | 354 kts | 95° |
| 2026-04-30 15:16 | 47.43627 | 9.35600 | 17403 ft | 365 kts | 76° |
| 2026-04-30 15:17 | 47.45700 | 9.49566 | 19399 ft | 376 kts | 76° |
| 2026-04-30 15:18 | 47.46817 | 9.68969 | 21848 ft | 393 kts | 91° |
| 2026-04-30 15:19 | 47.46134 | 9.81040 | 23294 ft | 394 kts | 91° |
| 2026-04-30 17:39 | 35.43722 | 25.31821 | 3004 ft | 167 kts | 78° |
| 2026-04-30 17:41 | 35.38998 | 25.35852 | 2819 ft | 143 kts | 205° |
| 2026-04-30 17:42 | 35.37190 | 25.34879 | 2519 ft | 141 kts | 205° |
| 2026-04-30 17:42 | 35.34503 | 25.33377 | 2508 ft | 141 kts | 216° |
| 2026-04-30 17:43 | 35.33426 | 25.31419 | 2361 ft | 144 kts | 259° |
| 2026-04-30 17:44 | 35.33546 | 25.27796 | 1681 ft | 142 kts | 274° |
| 2026-04-30 17:44 | 35.33631 | 25.24067 | 1017 ft | 145 kts | 270° |
| 2026-04-30 17:46 | 35.33971 | 25.17946 | 206 ft | 150 kts | 274° |
| 2026-04-30 17:47 | 35.34262 | 25.12331 | 2119 ft | 193 kts | 281° |
| 2026-04-30 17:48 | 35.38679 | 25.11883 | 2985 ft | 217 kts | 65° |
| 2026-04-30 17:48 | 35.38889 | 25.17343 | 3008 ft | 216 kts | 76° |
| 2026-04-30 17:49 | 35.40818 | 25.24315 | 3008 ft | 216 kts | 71° |
| 2026-04-30 17:50 | 35.42715 | 25.31065 | 2967 ft | 200 kts | 70° |
| 2026-04-30 17:51 | 35.43588 | 25.35918 | 2501 ft | 195 kts | 109° |
| 2026-04-30 17:52 | 35.40396 | 25.37874 | 2429 ft | 187 kts | 195° |
| 2026-04-30 17:53 | 35.34356 | 25.36221 | 2311 ft | 190 kts | 201° |
| 2026-04-30 17:54 | 35.33033 | 25.31693 | 2319 ft | 143 kts | 275° |
| 2026-04-30 17:55 | 35.33365 | 25.26849 | 1530 ft | 146 kts | 275° |
| 2026-04-30 17:56 | 35.33702 | 25.21831 | 529 ft | 147 kts | 275° |
| 2026-04-30 17:57 | 35.33957 | 25.18263 | 105 ft | 131 kts | 276° |
| 2026-04-30 17:58 | 35.34205 | 25.14701 | 1373 ft | 162 kts | 274° |
| 2026-04-30 17:59 | 35.37068 | 25.13360 | 2187 ft | 195 kts | 82° |
| 2026-04-30 18:00 | 35.34857 | 25.19428 | 1219 ft | 191 kts | 136° |
| 2026-04-30 18:00 | 35.32353 | 25.19698 | 1060 ft | 146 kts | 295° |
| 2026-04-30 18:01 | 35.33931 | 25.18016 | 164 ft | 152 kts | 284° |
| 2026-04-30 18:02 | 35.34101 | 25.16332 | 91 ft | 2 kts | 86° |
| 2026-04-30 18:02 | 35.34034 | 25.16643 | 93 ft | 0 kts | 128° |
| 2026-04-30 18:05 | 35.33896 | 25.17647 | 94 ft | 35 kts | 99° |
| 2026-04-30 18:06 | 35.33810 | 25.17702 | 93 ft | 6 kts | 266° |
| 2026-04-30 18:07 | 35.33813 | 25.17668 | 94 ft | 0 kts | 275° |